Time;durP1;ratioP1;P1;durP2;ratioP2;P2;SDS_P1;SDS_P2;PMS_P1;PMS_P2;Temp;Humidity;BMP_temperature;BMP_pressure;BME280_temperature;BME280_humidity;BME280_pressure;Samples;Min_cycle;Max_cycle;Signal;HPM_P1;HPM_P2
2022/07/08 00:00:20;;;;;;;2.60;0.60;;;11.90;99.90;;;;;;4937771;29;20543;-73
2022/07/08 00:02:48;;;;;;;1.75;0.90;;;12.00;99.90;;;;;;4939867;29;20110;-72
2022/07/08 00:05:15;;;;;;;4.53;0.88;;;12.00;99.90;;;;;;4925182;29;20154;-73
2022/07/08 00:07:43;;;;;;;2.67;0.75;;;12.10;99.90;;;;;;4958484;29;20391;-72
2022/07/08 00:10:10;;;;;;;2.45;0.70;;;12.20;99.90;;;;;;4941119;29;20031;-72
2022/07/08 00:12:41;;;;;;;3.10;0.70;;;12.20;99.90;;;;;;4959167;29;20468;-73
2022/07/08 00:15:10;;;;;;;3.33;0.90;;;12.30;99.90;;;;;;4958813;29;20038;-72
2022/07/08 00:17:37;;;;;;;2.95;0.60;;;12.40;99.90;;;;;;4958441;29;20051;-73
2022/07/08 00:20:06;;;;;;;1.45;0.60;;;12.50;99.90;;;;;;4941035;29;20070;-73
2022/07/08 00:22:34;;;;;;;1.67;0.80;;;12.50;99.90;;;;;;4940953;29;20023;-73
2022/07/08 00:25:02;;;;;;;1.95;0.60;;;12.60;99.90;;;;;;4958512;29;20078;-72
2022/07/08 00:27:30;;;;;;;2.83;0.60;;;12.60;99.90;;;;;;4940886;29;20046;-72
2022/07/08 00:29:57;;;;;;;1.88;0.75;;;12.60;99.90;;;;;;4958219;29;20440;-73
2022/07/08 00:32:25;;;;;;;1.48;0.55;;;12.70;99.90;;;;;;4958087;29;20019;-73
2022/07/08 00:34:52;;;;;;;1.67;0.77;;;12.70;99.90;;;;;;4958165;29;20023;-72
2022/07/08 00:37:19;;;;;;;2.58;0.57;;;12.70;99.90;;;;;;4940762;29;20506;-73
2022/07/08 00:39:47;;;;;;;2.10;0.60;;;12.70;99.90;;;;;;4940801;29;20392;-73
2022/07/08 00:42:14;;;;;;;1.73;0.60;;;12.80;99.90;;;;;;4958005;29;20151;-72
2022/07/08 00:44:42;;;;;;;2.42;0.60;;;12.80;99.90;;;;;;4940553;29;20059;-73
2022/07/08 00:47:09;;;;;;;2.08;0.70;;;12.80;99.90;;;;;;4958215;29;20072;-73
2022/07/08 00:49:37;;;;;;;2.30;0.57;;;13.00;99.90;;;;;;4958175;29;20025;-72
2022/07/08 00:52:04;;;;;;;2.75;0.65;;;13.00;99.90;;;;;;4957844;29;20387;-73
2022/07/08 00:54:34;;;;;;;1.23;0.40;;;13.10;99.90;;;;;;4957742;29;20111;-73
2022/07/08 00:57:02;;;;;;;1.33;0.50;;;13.20;99.90;;;;;;4940403;29;20142;-72
2022/07/08 00:59:30;;;;;;;1.45;0.38;;;13.20;99.90;;;;;;4940667;29;20392;-73
2022/07/08 01:01:57;;;;;;;1.23;0.50;;;13.20;99.90;;;;;;4957712;29;20026;-73
2022/07/08 01:04:25;;;;;;;1.60;0.50;;;13.20;99.90;;;;;;4957630;29;20023;-73
2022/07/08 01:06:52;;;;;;;1.67;0.60;;;13.20;99.90;;;;;;4940977;29;20139;-72
2022/07/08 01:09:20;;;;;;;2.63;0.32;;;13.30;99.90;;;;;;4957559;29;20021;-72
2022/07/08 01:11:49;;;;;;;2.13;0.68;;;13.30;99.90;;;;;;4957172;29;20027;-72
2022/07/08 01:14:17;;;;;;;1.50;0.45;;;13.50;99.90;;;;;;4957304;28;20432;-72
2022/07/08 01:16:44;;;;;;;1.85;0.40;;;13.60;99.90;;;;;;4957342;29;20030;-72
2022/07/08 01:19:12;;;;;;;2.00;0.50;;;13.60;99.90;;;;;;4957621;29;20082;-72
2022/07/08 01:21:39;;;;;;;1.25;0.47;;;13.60;99.90;;;;;;4957306;29;20030;-72
2022/07/08 01:24:07;;;;;;;2.80;1.00;;;13.80;99.90;;;;;;4956137;29;20038;-72
2022/07/08 01:26:35;;;;;;;2.40;0.80;;;13.80;99.90;;;;;;4940219;29;20181;-72
2022/07/08 01:29:02;;;;;;;1.80;0.32;;;13.90;99.90;;;;;;4939913;29;20544;-72
2022/07/08 01:31:29;;;;;;;1.35;0.40;;;13.90;99.90;;;;;;4957097;29;20023;-73
2022/07/08 01:33:57;;;;;;;2.40;0.50;;;13.90;99.90;;;;;;4957406;29;20031;-73
2022/07/08 01:36:24;;;;;;;2.33;0.70;;;14.10;99.90;;;;;;4939776;29;20042;-74
2022/07/08 01:38:51;;;;;;;2.35;0.35;;;14.10;99.90;;;;;;4956911;29;20027;-73
2022/07/08 01:41:19;;;;;;;1.95;0.32;;;14.20;99.90;;;;;;4956885;29;20455;-73
2022/07/08 01:43:46;;;;;;;0.70;0.47;;;14.20;99.90;;;;;;4939925;29;20066;-73
2022/07/08 01:46:16;;;;;;;2.38;0.43;;;14.40;99.90;;;;;;4956706;29;20474;-73
2022/07/08 01:48:45;;;;;;;1.13;0.30;;;14.40;99.90;;;;;;4939462;29;20027;-73
2022/07/08 01:51:12;;;;;;;1.77;0.55;;;14.40;99.90;;;;;;4939975;29;20028;-73
2022/07/08 01:53:40;;;;;;;1.25;0.40;;;14.50;99.90;;;;;;4956737;29;20034;-73
2022/07/08 01:56:07;;;;;;;2.25;0.50;;;14.50;99.90;;;;;;4939281;29;20038;-73
2022/07/08 01:58:35;;;;;;;2.53;0.38;;;14.60;99.90;;;;;;4939264;29;20029;-73
2022/07/08 02:01:02;;;;;;;0.45;0.20;;;14.70;99.90;;;;;;4956541;29;20035;-74
2022/07/08 02:03:29;;;;;;;2.30;0.50;;;14.80;99.90;;;;;;4956357;29;20035;-74
2022/07/08 02:05:56;;;;;;;1.40;0.25;;;14.80;99.90;;;;;;4956015;29;20055;-74
2022/07/08 02:08:24;;;;;;;1.85;0.30;;;14.90;99.90;;;;;;4938855;29;20020;-74
2022/07/08 02:13:36;;;;;;;0.70;0.38;;;14.90;99.90;;;;;;4956785;29;20082;-74
2022/07/08 02:16:04;;;;;;;1.60;0.50;;;14.80;99.90;;;;;;4956205;29;20027;-74
2022/07/08 02:18:32;;;;;;;1.52;0.35;;;15.00;99.90;;;;;;4938575;29;20031;-74
2022/07/08 02:20:59;;;;;;;0.85;0.47;;;14.90;99.90;;;;;;4956065;29;20035;-74
2022/07/08 02:23:26;;;;;;;1.52;0.63;;;14.90;99.90;;;;;;4955902;29;20495;-74
2022/07/08 02:25:54;;;;;;;2.72;0.47;;;14.80;99.90;;;;;;4955304;28;20027;-74
2022/07/08 02:28:21;;;;;;;0.63;0.22;;;14.70;99.90;;;;;;4938606;29;20440;-74
2022/07/08 02:30:48;;;;;;;0.90;0.32;;;14.80;99.90;;;;;;4955838;29;20077;-74
2022/07/08 02:33:15;;;;;;;1.67;0.55;;;14.90;99.90;;;;;;4955807;29;20042;-74
2022/07/08 02:35:43;;;;;;;0.40;0.20;;;15.00;99.90;;;;;;4938467;29;20082;-74
2022/07/08 02:38:10;;;;;;;0.75;0.20;;;15.00;99.90;;;;;;4955846;29;20487;-74
2022/07/08 02:40:37;;;;;;;0.85;0.30;;;15.00;99.90;;;;;;4955675;29;20020;-75
2022/07/08 02:43:09;;;;;;;2.08;0.30;;;15.10;99.90;;;;;;4938327;29;20034;-74
2022/07/08 02:45:37;;;;;;;0.73;0.40;;;15.00;99.90;;;;;;4939492;29;20026;-75
2022/07/08 02:48:06;;;;;;;2.20;0.57;;;14.90;99.90;;;;;;4955692;29;20030;-74
2022/07/08 02:50:34;;;;;;;1.48;0.30;;;14.90;99.90;;;;;;4956009;29;20046;-74
2022/07/08 02:53:01;;;;;;;1.13;0.30;;;15.10;99.90;;;;;;4955524;29;20027;-74
2022/07/08 02:55:29;;;;;;;1.02;0.30;;;15.10;99.90;;;;;;4955339;29;20078;-74
2022/07/08 02:57:56;;;;;;;1.30;0.20;;;15.00;99.90;;;;;;4938242;29;20028;-74
2022/07/08 03:00:26;;;;;;;1.20;0.43;;;14.90;99.90;;;;;;4938024;29;20031;-73
2022/07/08 03:02:53;;;;;;;2.05;0.30;;;14.90;99.90;;;;;;4955720;29;20015;-74
2022/07/08 03:05:21;;;;;;;0.55;0.10;;;14.90;99.90;;;;;;4954996;29;20050;-74
2022/07/08 03:07:48;;;;;;;0.50;0.20;;;14.90;99.90;;;;;;4955100;29;20023;-75
2022/07/08 03:10:15;;;;;;;1.25;0.25;;;14.90;99.90;;;;;;4955027;29;20066;-74
2022/07/08 03:12:43;;;;;;;0.70;0.15;;;14.90;99.90;;;;;;4937715;29;20020;-74
2022/07/08 03:15:10;;;;;;;0.17;0.10;;;15.00;99.90;;;;;;4955179;29;20038;-75
2022/07/08 03:17:37;;;;;;;1.98;0.30;;;15.00;99.90;;;;;;4937675;29;20118;-74
2022/07/08 03:20:06;;;;;;;1.05;0.50;;;15.10;99.90;;;;;;4954999;29;20028;-74
2022/07/08 03:22:34;;;;;;;0.47;0.20;;;14.90;99.90;;;;;;4937782;29;20421;-75
2022/07/08 03:25:02;;;;;;;0.25;0.15;;;15.00;99.90;;;;;;4937802;29;20038;-74
2022/07/08 03:27:30;;;;;;;1.20;0.30;;;15.00;99.90;;;;;;4954991;29;20076;-75
2022/07/08 03:29:57;;;;;;;0.90;0.10;;;14.90;99.90;;;;;;4955038;29;20074;-74
2022/07/08 03:32:26;;;;;;;0.38;0.10;;;15.00;99.90;;;;;;4955117;29;20023;-75
2022/07/08 03:34:53;;;;;;;0.75;0.20;;;15.00;99.90;;;;;;4955086;29;20102;-75
2022/07/08 03:37:20;;;;;;;2.00;0.25;;;15.00;99.90;;;;;;4954013;28;20399;-75
2022/07/08 03:39:48;;;;;;;0.60;0.13;;;14.90;99.90;;;;;;4954991;29;20035;-75
2022/07/08 03:42:15;;;;;;;0.75;0.10;;;14.80;99.90;;;;;;4937698;29;20035;-75
2022/07/08 03:44:42;;;;;;;0.77;0.20;;;14.90;99.90;;;;;;4937533;29;20027;-75
2022/07/08 03:47:10;;;;;;;0.80;0.10;;;14.90;99.90;;;;;;4955045;29;20019;-74
2022/07/08 03:49:38;;;;;;;0.73;0.20;;;14.90;99.90;;;;;;4954951;29;20079;-75
2022/07/08 03:52:06;;;;;;;1.10;0.20;;;14.80;99.90;;;;;;4937393;29;20036;-75
2022/07/08 03:54:33;;;;;;;0.75;0.20;;;14.90;99.90;;;;;;4954725;29;20030;-75
2022/07/08 03:57:00;;;;;;;0.80;0.20;;;14.90;99.90;;;;;;4937393;29;20031;-75
2022/07/08 03:59:28;;;;;;;0.38;0.10;;;14.90;99.90;;;;;;4954681;29;20027;-74
2022/07/08 04:01:55;;;;;;;1.05;0.20;;;14.80;99.90;;;;;;4955035;29;20027;-75
2022/07/08 04:04:23;;;;;;;1.15;0.15;;;14.70;99.90;;;;;;4954289;29;20035;-74
2022/07/08 04:06:50;;;;;;;0.77;0.25;;;14.80;99.90;;;;;;4954230;29;20404;-74
2022/07/08 04:09:17;;;;;;;0.60;0.20;;;14.70;99.90;;;;;;4954461;29;20027;-74
2022/07/08 04:11:45;;;;;;;0.10;0.00;;;14.80;99.90;;;;;;4954598;29;20476;-75
2022/07/08 04:14:12;;;;;;;1.13;0.20;;;14.90;99.90;;;;;;4954494;29;20016;-75
2022/07/08 04:16:39;;;;;;;0.80;0.28;;;14.80;99.90;;;;;;4954325;29;20083;-75
2022/07/08 04:19:07;;;;;;;0.10;0.10;;;14.90;99.90;;;;;;4954534;29;20030;-75
2022/07/08 04:21:34;;;;;;;1.17;0.15;;;14.70;99.90;;;;;;4937054;29;20063;-75
2022/07/08 04:24:01;;;;;;;0.82;0.20;;;14.80;99.90;;;;;;4954405;29;20431;-75
2022/07/08 04:26:31;;;;;;;0.20;0.15;;;14.80;99.90;;;;;;4954333;29;20158;-75
2022/07/08 04:28:59;;;;;;;0.32;0.20;;;14.80;99.90;;;;;;4954326;29;20322;-75
2022/07/08 04:31:28;;;;;;;3.05;0.17;;;14.70;99.90;;;;;;4954388;29;20027;-75
2022/07/08 04:33:55;;;;;;;0.30;0.10;;;14.70;99.90;;;;;;4954312;29;20027;-74
2022/07/08 04:36:23;;;;;;;0.60;0.30;;;14.70;99.90;;;;;;4954770;29;20059;-75
2022/07/08 04:38:50;;;;;;;0.60;0.10;;;14.70;99.90;;;;;;4954062;29;20541;-75
2022/07/08 04:41:18;;;;;;;1.55;0.20;;;14.60;99.90;;;;;;4936886;29;20036;-75
2022/07/08 04:43:46;;;;;;;0.38;0.20;;;14.60;99.90;;;;;;4954086;29;20027;-75
2022/07/08 04:46:14;;;;;;;0.40;0.10;;;14.60;99.90;;;;;;4954359;29;20038;-74
2022/07/08 04:48:41;;;;;;;0.32;0.10;;;14.50;99.90;;;;;;4956293;28;20468;-73
2022/07/08 04:51:09;;;;;;;0.28;0.20;;;14.60;99.90;;;;;;4957515;29;20118;-73
2022/07/08 04:53:36;;;;;;;0.25;0.15;;;14.60;99.90;;;;;;4940117;29;20114;-74
2022/07/08 04:56:04;;;;;;;0.77;0.20;;;14.50;99.90;;;;;;4957628;29;20030;-71
2022/07/08 04:58:32;;;;;;;0.38;0.20;;;14.50;99.90;;;;;;4957391;29;20038;-73
2022/07/08 05:00:59;;;;;;;1.92;0.17;;;14.50;99.90;;;;;;4957452;29;20507;-73
2022/07/08 05:03:26;;;;;;;0.88;0.30;;;14.50;99.90;;;;;;4957310;29;20058;-73
2022/07/08 05:05:54;;;;;;;1.17;0.25;;;14.40;99.90;;;;;;4939619;29;20094;-75
2022/07/08 05:08:21;;;;;;;0.88;0.10;;;14.40;99.90;;;;;;4957143;29;20457;-73
2022/07/08 05:10:48;;;;;;;0.90;0.17;;;14.40;99.90;;;;;;4939766;29;20050;-74
2022/07/08 05:13:16;;;;;;;0.90;0.30;;;14.40;99.90;;;;;;4939771;29;20035;-74
2022/07/08 05:15:44;;;;;;;0.20;0.10;;;14.30;99.90;;;;;;4957184;29;20015;-74
2022/07/08 05:18:14;;;;;;;0.30;0.20;;;14.30;99.90;;;;;;4939782;29;20023;-73
2022/07/08 05:20:42;;;;;;;0.73;0.22;;;14.30;99.90;;;;;;4957323;29;20023;-74
2022/07/08 05:23:09;;;;;;;1.35;0.20;;;14.30;99.90;;;;;;4956957;29;20396;-74
2022/07/08 05:25:36;;;;;;;1.00;0.30;;;14.30;99.90;;;;;;4956850;29;20042;-74
2022/07/08 05:28:04;;;;;;;1.50;0.28;;;14.20;99.90;;;;;;4956893;29;20015;-73
2022/07/08 05:30:31;;;;;;;1.45;0.50;;;14.20;99.90;;;;;;4956896;29;20047;-73
2022/07/08 05:32:59;;;;;;;0.93;0.43;;;14.20;99.90;;;;;;4957002;29;20027;-73
2022/07/08 05:35:26;;;;;;;1.65;0.25;;;14.10;99.90;;;;;;4956812;29;20027;-73
2022/07/08 05:37:54;;;;;;;0.75;0.20;;;14.10;99.90;;;;;;4956647;29;20027;-74
2022/07/08 05:40:21;;;;;;;1.42;0.40;;;14.00;99.90;;;;;;4956662;29;20028;-73
2022/07/08 05:42:49;;;;;;;1.00;0.20;;;14.00;99.90;;;;;;4956597;29;20543;-73
2022/07/08 05:45:16;;;;;;;0.30;0.17;;;13.90;99.90;;;;;;4939072;29;20126;-73
2022/07/08 05:47:43;;;;;;;0.55;0.10;;;13.90;99.90;;;;;;4956448;29;20553;-73
2022/07/08 05:50:11;;;;;;;0.65;0.20;;;13.80;99.90;;;;;;4956523;29;20041;-73
2022/07/08 05:52:38;;;;;;;0.20;0.20;;;13.80;99.90;;;;;;4956386;29;20027;-74
2022/07/08 05:55:06;;;;;;;0.50;0.20;;;13.70;99.90;;;;;;4956309;29;20027;-75
2022/07/08 05:57:34;;;;;;;1.13;0.40;;;13.70;99.90;;;;;;4938755;29;20167;-75
2022/07/08 06:00:01;;;;;;;1.40;0.40;;;13.70;99.90;;;;;;4937867;29;20122;-74
2022/07/08 06:02:28;;;;;;;0.52;0.20;;;13.60;99.90;;;;;;4956209;29;20031;-74
2022/07/08 06:04:55;;;;;;;0.50;0.20;;;13.50;99.90;;;;;;4938581;29;20090;-74
2022/07/08 06:07:23;;;;;;;0.40;0.20;;;13.50;99.90;;;;;;4956193;29;20023;-74
2022/07/08 06:09:50;;;;;;;0.30;0.30;;;13.50;99.90;;;;;;4956298;29;20082;-74
2022/07/08 06:12:18;;;;;;;1.83;0.50;;;13.40;99.90;;;;;;4956068;29;20066;-75
2022/07/08 06:14:45;;;;;;;2.08;0.40;;;13.30;99.90;;;;;;4955917;29;20457;-75
2022/07/08 06:17:12;;;;;;;1.05;0.55;;;13.20;99.90;;;;;;4938776;29;20063;-74
2022/07/08 06:19:40;;;;;;;0.95;0.30;;;13.20;99.90;;;;;;4955915;29;20027;-74
2022/07/08 06:22:08;;;;;;;0.80;0.43;;;13.20;99.90;;;;;;4956343;29;20038;-74
2022/07/08 06:24:36;;;;;;;1.55;0.30;;;13.20;99.90;;;;;;4956452;29;20038;-75
2022/07/08 06:27:03;;;;;;;1.10;0.28;;;13.10;99.90;;;;;;4955679;29;20480;-75
2022/07/08 06:29:31;;;;;;;1.17;0.30;;;13.10;99.90;;;;;;4955950;29;20097;-75
2022/07/08 06:31:58;;;;;;;1.77;0.52;;;13.00;99.90;;;;;;4938486;29;20024;-75
2022/07/08 06:34:27;;;;;;;1.10;0.40;;;12.90;99.90;;;;;;4955771;29;20019;-75
2022/07/08 06:36:54;;;;;;;1.30;0.30;;;12.90;99.90;;;;;;4955600;29;20114;-75
2022/07/08 06:39:21;;;;;;;0.75;0.30;;;12.90;99.90;;;;;;4955587;29;20046;-75
2022/07/08 06:41:49;;;;;;;0.90;0.50;;;12.80;99.90;;;;;;4955572;29;20023;-75
2022/07/08 06:44:16;;;;;;;1.85;0.30;;;12.70;99.90;;;;;;4955575;29;20069;-75
2022/07/08 06:46:43;;;;;;;2.08;0.57;;;12.70;99.90;;;;;;4955363;29;20041;-75
2022/07/08 06:49:11;;;;;;;4.00;0.60;;;12.60;99.90;;;;;;4955468;29;20106;-75
2022/07/08 06:51:38;;;;;;;1.98;0.30;;;12.60;99.90;;;;;;4955674;29;20026;-76
2022/07/08 06:56:50;;;;;;;0.85;0.30;;;12.40;99.90;;;;;;4955535;29;20066;-75
2022/07/08 06:59:18;;;;;;;2.08;0.60;;;12.40;99.90;;;;;;4955737;29;20111;-75
2022/07/08 07:01:45;;;;;;;3.33;0.82;;;12.40;99.90;;;;;;4955134;29;20035;-75
2022/07/08 07:04:12;;;;;;;1.55;0.70;;;12.20;99.90;;;;;;4955210;29;20121;-75
2022/07/08 07:06:40;;;;;;;1.83;0.80;;;12.20;99.90;;;;;;4954812;29;20420;-74
2022/07/08 07:09:07;;;;;;;1.88;0.70;;;12.10;99.90;;;;;;4937765;29;20051;-75
2022/07/08 07:11:35;;;;;;;2.08;0.80;;;12.00;99.90;;;;;;4954908;28;20054;-75
2022/07/08 07:14:03;;;;;;;1.45;0.30;;;12.00;99.90;;;;;;4955136;29;20019;-76
2022/07/08 07:16:30;;;;;;;4.72;0.50;;;12.00;99.90;;;;;;4954949;29;20041;-74
2022/07/08 07:18:57;;;;;;;2.00;0.35;;;11.90;99.90;;;;;;4937628;29;20031;-75
2022/07/08 07:21:24;;;;;;;2.63;0.65;;;12.00;99.90;;;;;;4954840;29;20031;-75
2022/07/08 07:23:52;;;;;;;0.65;0.35;;;12.00;99.90;;;;;;4954929;29;20046;-77
2022/07/08 07:26:19;;;;;;;1.88;0.70;;;11.90;99.90;;;;;;4954728;29;20452;-74
2022/07/08 07:28:47;;;;;;;0.85;0.60;;;11.90;99.90;;;;;;4954856;29;20030;-73
2022/07/08 07:31:14;;;;;;;0.93;0.43;;;11.80;99.90;;;;;;4955018;29;20369;-73
2022/07/08 07:33:42;;;;;;;2.03;0.60;;;11.80;99.90;;;;;;4954692;29;20030;-74
2022/07/08 07:36:09;;;;;;;2.80;2.22;;;11.80;99.90;;;;;;4937456;29;20480;-74
2022/07/08 07:38:36;;;;;;;2.53;1.83;;;11.70;99.90;;;;;;4954512;29;20023;-74
2022/07/08 07:41:04;;;;;;;3.63;1.33;;;11.70;99.90;;;;;;4954800;29;20033;-74
2022/07/08 07:43:31;;;;;;;2.75;1.23;;;11.80;99.90;;;;;;4954725;29;20034;-74
2022/07/08 07:45:59;;;;;;;2.13;1.00;;;11.70;99.90;;;;;;4937933;29;20099;-75
2022/07/08 07:48:26;;;;;;;1.25;0.65;;;11.70;99.90;;;;;;4954682;29;20054;-75
2022/07/08 07:50:58;;;;;;;1.08;0.80;;;11.70;99.90;;;;;;4954570;29;20055;-74
2022/07/08 07:53:26;;;;;;;1.02;0.50;;;11.60;99.90;;;;;;4954641;29;20035;-74
2022/07/08 07:55:53;;;;;;;2.50;0.60;;;11.60;99.90;;;;;;4954874;29;20023;-75
2022/07/08 07:58:21;;;;;;;4.47;1.00;;;11.60;99.90;;;;;;4954873;29;20442;-74
2022/07/08 08:00:48;;;;;;;1.48;0.68;;;11.60;99.90;;;;;;4954629;29;20027;-75
2022/07/08 08:03:16;;;;;;;1.60;0.77;;;11.50;99.90;;;;;;4954128;29;20513;-75
2022/07/08 08:05:43;;;;;;;0.98;0.60;;;11.50;99.90;;;;;;4936193;29;20047;-75
2022/07/08 08:08:11;;;;;;;1.17;0.65;;;11.50;99.90;;;;;;4954524;29;20107;-74
2022/07/08 08:10:39;;;;;;;2.42;0.63;;;11.50;99.90;;;;;;4954447;29;20027;-75
2022/07/08 08:13:06;;;;;;;3.72;0.77;;;11.60;99.90;;;;;;4954746;29;20015;-76
2022/07/08 08:15:33;;;;;;;1.67;0.60;;;11.60;99.90;;;;;;4954481;29;20114;-76
2022/07/08 08:18:01;;;;;;;1.98;0.63;;;11.50;99.90;;;;;;4937528;29;20444;-76
2022/07/08 08:20:29;;;;;;;0.82;0.45;;;11.50;99.90;;;;;;4954438;29;20020;-76
2022/07/08 08:22:56;;;;;;;2.55;0.70;;;11.40;99.90;;;;;;4955673;28;20498;-75
2022/07/08 08:25:24;;;;;;;1.17;0.60;;;11.40;99.90;;;;;;4958175;29;20027;-75
2022/07/08 08:27:52;;;;;;;1.20;0.70;;;11.40;99.90;;;;;;4958075;29;20373;-75
2022/07/08 08:30:20;;;;;;;1.75;0.47;;;11.40;99.90;;;;;;4941282;29;20023;-75
2022/07/08 08:32:47;;;;;;;1.45;0.52;;;11.40;99.90;;;;;;4958078;29;20023;-75
2022/07/08 08:35:15;;;;;;;1.40;0.60;;;11.40;99.90;;;;;;4957953;29;20019;-75
2022/07/08 08:37:42;;;;;;;2.38;0.50;;;11.20;99.90;;;;;;4958005;29;20027;-75
2022/07/08 08:40:11;;;;;;;1.08;0.60;;;11.20;99.90;;;;;;4940658;29;20031;-75
2022/07/08 08:42:40;;;;;;;1.90;0.65;;;11.20;99.90;;;;;;4957886;29;20031;-75
2022/07/08 08:45:09;;;;;;;1.88;0.70;;;11.10;99.90;;;;;;4957931;29;20027;-75
2022/07/08 08:47:36;;;;;;;1.65;0.70;;;11.10;99.90;;;;;;4940524;29;20028;-75
2022/07/08 08:52:53;;;;;;;2.33;0.90;;;11.10;99.90;;;;;;4957845;29;20562;-75
2022/07/08 08:55:29;;;;;;;2.70;0.70;;;11.10;99.90;;;;;;4957751;29;20046;-75
2022/07/08 08:58:04;;;;;;;2.38;0.85;;;11.00;99.90;;;;;;4957556;29;20102;-75
2022/07/08 09:00:34;;;;;;;4.13;2.55;;;11.00;99.90;;;;;;4957834;29;20106;-75
2022/07/08 09:03:01;;;;;;;2.13;0.65;;;11.00;99.90;;;;;;4940315;29;20030;-74
2022/07/08 09:05:30;;;;;;;1.70;0.70;;;11.00;99.90;;;;;;4957195;29;20524;-75
2022/07/08 09:07:58;;;;;;;2.13;1.17;;;10.90;99.90;;;;;;4957438;29;20027;-74
2022/07/08 09:10:26;;;;;;;2.35;0.90;;;10.80;99.90;;;;;;4957399;29;20110;-74
2022/07/08 09:13:06;;;;;;;2.08;0.73;;;10.70;99.90;;;;;;4957400;29;20484;-74
2022/07/08 09:16:00;;;;;;;1.35;0.73;;;10.70;99.90;;;;;;4957835;29;20019;-74
2022/07/08 09:18:30;;;;;;;2.10;0.75;;;10.70;99.90;;;;;;4957773;29;20345;-74
2022/07/08 09:20:59;;;;;;;2.03;0.82;;;10.70;99.90;;;;;;4957240;29;20400;-74
2022/07/08 09:23:35;;;;;;;1.95;1.23;;;10.70;99.90;;;;;;4957166;29;20031;-74
2022/07/08 09:26:08;;;;;;;2.55;0.80;;;10.60;99.90;;;;;;4957166;29;20046;-74
2022/07/08 09:28:38;;;;;;;2.00;0.80;;;10.60;99.90;;;;;;4957084;29;20027;-74
2022/07/08 09:31:09;;;;;;;;;;;10.60;99.90;;;;;;4940213;29;20019;-74
2022/07/08 09:33:37;;;;;;;2.53;0.82;;;10.50;99.90;;;;;;4957505;28;19913;-74
2022/07/08 09:36:06;;;;;;;1.60;0.70;;;10.60;99.90;;;;;;4956992;29;20031;-73
2022/07/08 09:38:35;;;;;;;4.28;3.45;;;10.60;99.90;;;;;;4956959;29;20113;-73
2022/07/08 09:41:15;;;;;;;1.75;0.70;;;10.60;99.90;;;;;;4956807;29;20038;-74
2022/07/08 09:43:49;;;;;;;1.30;0.60;;;10.50;99.90;;;;;;4956798;29;20106;-75
2022/07/08 09:46:17;;;;;;;1.08;0.65;;;10.60;99.90;;;;;;4956745;29;20035;-74
2022/07/08 09:48:45;;;;;;;1.58;0.75;;;10.60;99.90;;;;;;4956718;29;20023;-74
2022/07/08 09:51:16;;;;;;;1.88;0.70;;;10.50;99.90;;;;;;4956636;29;20098;-74
2022/07/08 09:53:44;;;;;;;2.15;0.90;;;10.50;99.90;;;;;;4957065;29;20023;-74
2022/07/08 09:56:11;;;;;;;1.88;0.80;;;10.50;99.90;;;;;;4956579;29;20058;-75
2022/07/08 09:58:39;;;;;;;1.83;0.90;;;10.50;99.90;;;;;;4939263;29;20031;-75
2022/07/08 10:01:06;;;;;;;0.80;0.60;;;10.50;99.90;;;;;;4956553;29;20028;-75
2022/07/08 10:03:35;;;;;;;2.35;1.17;;;10.50;99.90;;;;;;4956435;29;20035;-75
2022/07/08 10:06:03;;;;;;;2.08;0.70;;;10.50;99.90;;;;;;4956100;29;20047;-75
2022/07/08 10:08:30;;;;;;;3.15;2.47;;;10.50;99.90;;;;;;4956629;29;20520;-75
2022/07/08 10:11:03;;;;;;;0.90;0.73;;;10.50;99.90;;;;;;4956289;29;20015;-75
2022/07/08 10:13:32;;;;;;;1.30;0.73;;;10.40;99.90;;;;;;4956312;29;20106;-75
2022/07/08 10:16:01;;;;;;;2.17;0.75;;;10.40;99.90;;;;;;4938755;29;20023;-75
2022/07/08 10:18:45;;;;;;;1.20;0.50;;;10.50;99.90;;;;;;4956185;29;20015;-75
2022/07/08 10:21:17;;;;;;;1.30;0.60;;;10.60;99.90;;;;;;4956409;29;20026;-75
2022/07/08 10:23:49;;;;;;;1.88;0.90;;;10.60;99.90;;;;;;4956117;29;20024;-75
2022/07/08 10:26:33;;;;;;;9.13;6.10;;;10.50;99.90;;;;;;4938598;29;20039;-75
2022/07/08 10:29:05;;;;;;;2.08;0.90;;;10.40;99.90;;;;;;4955872;29;20078;-74
2022/07/08 10:31:46;;;;;;;1.95;1.27;;;10.30;99.90;;;;;;4955869;29;20515;-74
2022/07/08 10:34:33;;;;;;;2.72;0.70;;;10.30;99.90;;;;;;4938651;29;20026;-75
2022/07/08 10:37:03;;;;;;;2.03;0.73;;;10.40;99.90;;;;;;4955636;29;20424;-74
2022/07/08 10:39:31;;;;;;;1.33;0.70;;;10.30;99.90;;;;;;4955733;29;20023;-74
2022/07/08 10:41:59;;;;;;;2.10;1.20;;;10.30;99.90;;;;;;4955971;29;20054;-74
2022/07/08 10:44:45;;;;;;;2.30;0.90;;;10.30;99.90;;;;;;4955583;29;20027;-74
2022/07/08 10:47:24;;;;;;;1.98;1.00;;;10.30;99.90;;;;;;4955104;29;20102;-74
2022/07/08 10:50:01;;;;;;;1.90;0.85;;;10.30;99.90;;;;;;4938468;29;20031;-74
2022/07/08 10:52:33;;;;;;;3.92;1.67;;;10.30;99.90;;;;;;4938224;29;20019;-74
2022/07/08 10:55:13;;;;;;;1.25;0.73;;;10.30;99.90;;;;;;4955456;29;20384;-74
2022/07/08 10:57:54;;;;;;;1.50;0.80;;;10.30;99.90;;;;;;4955412;29;20034;-74
2022/07/08 11:00:22;;;;;;;4.18;1.83;;;10.30;99.90;;;;;;4955642;29;20038;-74
2022/07/08 11:02:50;;;;;;;2.80;1.38;;;10.20;99.90;;;;;;4955303;29;20514;-74
2022/07/08 11:05:41;;;;;;;2.50;1.00;;;10.30;99.90;;;;;;4955020;29;20043;-74
2022/07/08 11:08:20;;;;;;;3.58;0.90;;;10.20;99.90;;;;;;4937976;29;20062;-73
2022/07/08 11:10:52;;;;;;;1.83;0.73;;;10.10;99.90;;;;;;4955430;29;20381;-73
2022/07/08 11:13:20;;;;;;;2.60;0.80;;;10.20;99.90;;;;;;4937893;29;20468;-74
2022/07/08 11:15:48;;;;;;;2.33;0.80;;;10.30;99.90;;;;;;4938073;29;20034;-74
2022/07/08 11:18:23;;;;;;;1.38;0.80;;;10.30;99.90;;;;;;4955098;29;20026;-74
2022/07/08 11:21:04;;;;;;;1.90;0.80;;;10.30;99.90;;;;;;4955200;29;20035;-74
2022/07/08 11:23:31;;;;;;;2.17;0.85;;;10.30;99.90;;;;;;4955087;29;20066;-74
2022/07/08 11:25:59;;;;;;;1.67;0.75;;;10.30;99.90;;;;;;4954968;29;20412;-74
2022/07/08 11:28:27;;;;;;;0.95;0.70;;;10.30;99.90;;;;;;4954922;29;20105;-74
2022/07/08 11:30:54;;;;;;;2.03;0.80;;;10.30;99.90;;;;;;4954843;29;20103;-74
2022/07/08 11:33:45;;;;;;;2.13;0.60;;;10.20;99.90;;;;;;4954880;29;20023;-74
2022/07/08 11:36:16;;;;;;;;;;;10.20;99.90;;;;;;4955448;29;20447;-73
2022/07/08 11:38:44;;;;;;;1.67;0.73;;;10.20;99.90;;;;;;4955051;29;19954;-74
2022/07/08 11:41:12;;;;;;;2.50;1.15;;;10.10;99.90;;;;;;4955301;29;20033;-74
2022/07/08 11:43:40;;;;;;;1.58;0.70;;;10.10;99.90;;;;;;4954807;29;20461;-73
2022/07/08 11:46:22;;;;;;;1.42;0.80;;;10.10;99.90;;;;;;4954529;29;20031;-73
2022/07/08 11:48:49;;;;;;;1.35;0.93;;;10.10;99.90;;;;;;4954689;29;20102;-73
2022/07/08 11:51:17;;;;;;;1.75;0.70;;;10.00;99.90;;;;;;4937315;29;20019;-74
2022/07/08 11:53:45;;;;;;;1.23;0.80;;;10.10;99.90;;;;;;4954578;29;20440;-74
2022/07/08 11:56:13;;;;;;;2.97;1.02;;;10.00;99.90;;;;;;4954598;29;20024;-74
2022/07/08 11:58:41;;;;;;;0.93;0.57;;;10.10;99.90;;;;;;4956997;28;20058;-73
2022/07/08 12:01:08;;;;;;;1.08;0.60;;;10.00;99.90;;;;;;4958447;29;20027;-73
2022/07/08 12:03:36;;;;;;;1.38;0.65;;;10.10;99.90;;;;;;4958518;29;20030;-74
2022/07/08 12:06:04;;;;;;;1.75;0.77;;;10.10;99.90;;;;;;4958209;29;20118;-74
2022/07/08 12:08:35;;;;;;;0.90;0.60;;;10.10;99.90;;;;;;4958480;29;20043;-74
2022/07/08 12:11:16;;;;;;;1.23;0.57;;;10.00;99.90;;;;;;4941120;29;20091;-74
2022/07/08 12:13:48;;;;;;;2.65;0.95;;;10.00;99.90;;;;;;4941270;29;20094;-74
2022/07/08 12:16:34;;;;;;;1.73;0.88;;;10.00;99.90;;;;;;4958669;29;20055;-74
2022/07/08 12:19:04;;;;;;;2.50;0.73;;;10.00;99.90;;;;;;4958273;29;20034;-74
2022/07/08 12:21:32;;;;;;;2.03;0.70;;;9.90;99.90;;;;;;4958366;29;20106;-74
2022/07/08 12:24:02;;;;;;;1.05;0.63;;;10.10;99.90;;;;;;4958276;29;20029;-75
2022/07/08 12:26:29;;;;;;;2.45;0.68;;;10.20;99.90;;;;;;4958041;29;20019;-73
2022/07/08 12:28:57;;;;;;;2.30;0.70;;;10.20;99.90;;;;;;4958431;29;20046;-73
2022/07/08 12:31:37;;;;;;;1.08;0.70;;;10.30;99.90;;;;;;4958052;29;20023;-74
2022/07/08 12:34:09;;;;;;;1.67;0.70;;;10.30;99.90;;;;;;4941230;29;20467;-74
2022/07/08 12:36:36;;;;;;;1.65;0.70;;;10.20;99.90;;;;;;4958284;29;20042;-74
2022/07/08 12:39:21;;;;;;;1.60;0.77;;;10.20;99.90;;;;;;4957987;29;20032;-74
2022/07/08 12:42:05;;;;;;;2.67;1.00;;;10.30;99.90;;;;;;4957998;29;20059;-74
2022/07/08 12:44:35;;;;;;;1.73;0.50;;;10.30;99.90;;;;;;4957985;29;20033;-74
2022/07/08 12:47:04;;;;;;;1.00;0.60;;;10.30;99.90;;;;;;4957956;29;20030;-72
2022/07/08 12:49:35;;;;;;;2.85;0.70;;;10.30;99.90;;;;;;4940687;29;20813;-74
2022/07/08 12:52:04;;;;;;;2.28;0.60;;;10.30;99.90;;;;;;4957830;29;20026;-74
2022/07/08 12:54:32;;;;;;;1.95;0.88;;;10.30;99.90;;;;;;4940397;29;20031;-74
2022/07/08 12:57:00;;;;;;;1.70;0.73;;;10.30;99.90;;;;;;4940468;29;20088;-76
2022/07/08 12:59:29;;;;;;;1.55;0.68;;;10.30;99.90;;;;;;4957635;29;20039;-75
2022/07/08 13:01:57;;;;;;;1.33;0.60;;;10.30;99.90;;;;;;4957506;29;20078;-74
2022/07/08 13:04:25;;;;;;;1.30;0.60;;;10.20;99.90;;;;;;4957343;29;20054;-74